Time;durP1;ratioP1;P1;durP2;ratioP2;P2;SDS_P1;SDS_P2;PMS_P1;PMS_P2;Temp;Humidity;BMP_temperature;BMP_pressure;BME280_temperature;BME280_humidity;BME280_pressure;Samples;Min_cycle;Max_cycle;Signal;HPM_P1;HPM_P2
2023/12/10 00:00:55;;;;;;;;;;;15.40;58.20;;;;;;10283265;28;94107;-63
2023/12/10 00:05:57;;;;;;;;;;;15.30;58.80;;;;;;10271582;28;93654;-67
2023/12/10 00:11:13;;;;;;;;;;;15.30;58.60;;;;;;10293393;28;94465;-61
2023/12/10 00:16:16;;;;;;;;;;;15.30;58.30;;;;;;10286462;28;93575;-63
2023/12/10 00:21:18;;;;;;;;;;;15.30;58.10;;;;;;10278463;28;96295;-63
2023/12/10 00:26:20;;;;;;;;;;;15.30;57.90;;;;;;10267739;28;94299;-62
2023/12/10 00:31:22;;;;;;;;;;;15.40;57.60;;;;;;10279647;28;94399;-63
2023/12/10 00:36:24;;;;;;;;;;;15.40;57.50;;;;;;10280773;28;96025;-62
2023/12/10 00:41:26;;;;;;;;;;;15.40;57.20;;;;;;10267729;28;95080;-62
2023/12/10 00:46:28;;;;;;;;;;;15.40;57.10;;;;;;10285575;28;93437;-63
2023/12/10 00:51:29;;;;;;;;;;;15.40;57.10;;;;;;10282358;28;93372;-63
2023/12/10 00:56:31;;;;;;;;;;;15.30;57.80;;;;;;10287555;28;92647;-63
2023/12/10 01:01:33;;;;;;;;;;;15.30;58.30;;;;;;10286809;28;93242;-62
2023/12/10 01:06:35;;;;;;;;;;;15.30;58.00;;;;;;10301479;28;94837;-62
2023/12/10 01:11:37;;;;;;;;;;;15.30;57.70;;;;;;10283012;28;95352;-62
2023/12/10 01:16:40;;;;;;;;;;;15.30;57.50;;;;;;10282097;28;93515;-61
2023/12/10 01:21:42;;;;;;;;;;;15.30;57.30;;;;;;10284107;28;93614;-63
2023/12/10 01:26:44;;;;;;;;;;;15.40;57.20;;;;;;10279438;28;92620;-63
2023/12/10 01:31:46;;;;;;;;;;;15.30;56.90;;;;;;10284552;28;94762;-63
2023/12/10 01:36:48;;;;;;;;;;;15.30;56.80;;;;;;10276325;28;94573;-63
2023/12/10 01:41:50;;;;;;;;;;;15.40;56.70;;;;;;10278470;28;92910;-63
2023/12/10 01:46:53;;;;;;;;;;;15.30;56.70;;;;;;10287369;28;93865;-62
2023/12/10 01:51:55;;;;;;;;;;;15.30;57.50;;;;;;10274431;28;94388;-63
2023/12/10 01:56:57;;;;;;;;;;;15.30;57.90;;;;;;10285574;28;93946;-62
2023/12/10 02:07:23;;;;;;;;;;;15.20;57.40;;;;;;10288938;28;96018;-50
2023/12/10 02:12:24;;;;;;;;;;;15.20;57.20;;;;;;10312371;28;94521;-50
2023/12/10 02:17:28;;;;;;;;;;;15.30;57.10;;;;;;10322020;28;94817;-46
2023/12/10 02:22:30;;;;;;;;;;;15.20;56.80;;;;;;10314002;28;93184;-48
2023/12/10 02:27:31;;;;;;;;;;;15.30;56.70;;;;;;10307725;28;94420;-48
2023/12/10 02:32:33;;;;;;;;;;;15.30;56.50;;;;;;10323366;28;94589;-47
2023/12/10 02:37:35;;;;;;;;;;;15.30;56.40;;;;;;10322615;28;93219;-47
2023/12/10 02:42:37;;;;;;;;;;;15.30;56.80;;;;;;10324692;28;94594;-47
2023/12/10 02:47:39;;;;;;;;;;;15.30;57.40;;;;;;10323637;28;94596;-48
2023/12/10 02:52:41;;;;;;;;;;;15.20;57.70;;;;;;10313976;28;97030;-48
2023/12/10 02:57:43;;;;;;;;;;;15.20;57.40;;;;;;10320998;28;93501;-48
2023/12/10 03:02:45;;;;;;;;;;;15.20;57.30;;;;;;10324524;28;94538;-46
2023/12/10 03:07:47;;;;;;;;;;;15.20;57.00;;;;;;10323055;28;94512;-49
2023/12/10 03:12:48;;;;;;;;;;;15.20;56.80;;;;;;10312828;28;94464;-49
2023/12/10 03:17:50;;;;;;;;;;;15.20;56.60;;;;;;10309730;28;94031;-51
2023/12/10 03:22:52;;;;;;;;;;;15.20;56.50;;;;;;10301057;28;93546;-72
2023/12/10 03:27:54;;;;;;;;;;;15.20;56.40;;;;;;10324366;28;94169;-50
2023/12/10 03:32:56;;;;;;;;;;;15.20;56.30;;;;;;10321865;28;93823;-51
2023/12/10 03:37:58;;;;;;;;;;;15.20;56.60;;;;;;10304974;28;93205;-50
2023/12/10 03:43:00;;;;;;;;;;;15.10;57.30;;;;;;10319746;28;96816;-48
2023/12/10 03:48:01;;;;;;;;;;;15.10;57.50;;;;;;10321660;28;94066;-48
2023/12/10 03:53:03;;;;;;;;;;;15.10;57.30;;;;;;10313129;28;93530;-52
2023/12/10 03:58:05;;;;;;;;;;;15.10;57.10;;;;;;10321510;28;93857;-51
2023/12/10 04:03:07;;;;;;;;;;;15.10;56.90;;;;;;10309862;28;94644;-68
2023/12/10 04:08:09;;;;;;;;;;;15.10;56.90;;;;;;10320727;28;93505;-49
2023/12/10 04:13:10;;;;;;;;;;;15.10;57.00;;;;;;10303967;28;93400;-50
2023/12/10 04:18:14;;;;;;;;;;;15.10;57.40;;;;;;10322491;28;94464;-48
2023/12/10 04:23:16;;;;;;;;;;;15.10;57.70;;;;;;10327398;28;93522;-54
2023/12/10 04:28:18;;;;;;;;;;;15.10;57.90;;;;;;10322285;28;94653;-50
2023/12/10 04:33:19;;;;;;;;;;;15.10;58.10;;;;;;10327108;28;96250;-50
2023/12/10 04:38:21;;;;;;;;;;;15.10;58.20;;;;;;10328939;28;93408;-47
2023/12/10 04:43:23;;;;;;;;;;;15.10;58.40;;;;;;10323413;28;94036;-46
2023/12/10 04:48:25;;;;;;;;;;;15.20;58.40;;;;;;10327252;28;93418;-51
2023/12/10 04:53:27;;;;;;;;;;;15.20;58.30;;;;;;10310203;28;94581;-46
2023/12/10 04:58:29;;;;;;;;;;;15.30;58.40;;;;;;10328118;28;93489;-46
2023/12/10 05:03:31;;;;;;;;;;;15.20;58.30;;;;;;10328730;28;94893;-51
2023/12/10 05:08:33;;;;;;;;;;;15.30;58.40;;;;;;10326395;28;92827;-47
2023/12/10 05:13:35;;;;;;;;;;;15.20;58.50;;;;;;10309190;28;93094;-51
2023/12/10 05:18:37;;;;;;;;;;;15.20;58.60;;;;;;10327794;28;92519;-48
2023/12/10 05:23:39;;;;;;;;;;;15.20;58.60;;;;;;10297276;28;95931;-50
2023/12/10 05:28:41;;;;;;;;;;;15.20;58.80;;;;;;10320472;28;93537;-47
2023/12/10 05:33:43;;;;;;;;;;;15.20;59.00;;;;;;10306901;28;93017;-49
2023/12/10 05:38:45;;;;;;;;;;;15.20;59.10;;;;;;10314272;28;93306;-46
2023/12/10 05:43:47;;;;;;;;;;;15.10;59.30;;;;;;10307781;28;94425;-49
2023/12/10 05:48:49;;;;;;;;;;;15.10;59.40;;;;;;10328140;28;94161;-46
2023/12/10 05:53:51;;;;;;;;;;;15.10;59.50;;;;;;10325541;28;94530;-50
2023/12/10 05:58:53;;;;;;;;;;;15.10;59.70;;;;;;10326035;28;92975;-47
2023/12/10 06:03:55;;;;;;;;;;;15.00;59.70;;;;;;10306485;28;93476;-46
2023/12/10 06:08:57;;;;;;;;;;;15.00;59.80;;;;;;10324088;28;94861;-49
2023/12/10 06:13:59;;;;;;;;;;;15.00;59.90;;;;;;10312668;28;95861;-51
2023/12/10 06:19:00;;;;;;;;;;;15.00;59.90;;;;;;10306404;28;93542;-49
2023/12/10 06:24:03;;;;;;;;;;;15.00;60.00;;;;;;10323325;28;93803;-48
2023/12/10 06:29:05;;;;;;;;;;;15.00;60.00;;;;;;10302482;28;94799;-46
2023/12/10 06:34:06;;;;;;;;;;;15.00;60.20;;;;;;10324389;28;93382;-47
2023/12/10 06:39:09;;;;;;;;;;;15.00;60.10;;;;;;10325834;28;94303;-50
2023/12/10 06:44:14;;;;;;;;;;;15.00;60.20;;;;;;10316329;28;93437;-45
2023/12/10 06:49:16;;;;;;;;;;;15.00;60.20;;;;;;10313915;28;92654;-51
2023/12/10 06:54:18;;;;;;;;;;;15.00;60.30;;;;;;10321952;28;94881;-51
2023/12/10 06:59:20;;;;;;;;;;;15.00;60.20;;;;;;10323553;28;94426;-46
2023/12/10 07:04:22;;;;;;;;;;;15.10;60.10;;;;;;10320180;28;97339;-49
2023/12/10 07:09:24;;;;;;;;;;;15.10;59.90;;;;;;10314562;28;94625;-47
2023/12/10 07:14:26;;;;;;;;;;;15.10;59.90;;;;;;10313755;28;94752;-46
2023/12/10 07:19:27;;;;;;;;;;;15.10;59.90;;;;;;10322635;28;93374;-52
2023/12/10 07:24:30;;;;;;;;;;;15.10;59.90;;;;;;10323196;28;93111;-57
2023/12/10 07:29:32;;;;;;;;;;;15.10;59.90;;;;;;10299389;28;93455;-48
2023/12/10 07:34:34;;;;;;;;;;;15.10;59.90;;;;;;10322601;28;94428;-49
2023/12/10 07:39:35;;;;;;;;;;;15.10;60.00;;;;;;10321774;28;93738;-48
2023/12/10 07:44:37;;;;;;;;;;;15.10;60.00;;;;;;10298422;28;94518;-44
2023/12/10 07:49:39;;;;;;;;;;;15.10;60.10;;;;;;10322987;28;94435;-50
2023/12/10 07:54:41;;;;;;;;;;;15.00;60.20;;;;;;10319356;28;97253;-54
2023/12/10 07:59:43;;;;;;;;;;;15.00;60.20;;;;;;10318913;28;93460;-48
2023/12/10 08:04:45;;;;;;;;;;;15.00;60.40;;;;;;10319947;28;93451;-48
2023/12/10 08:09:47;;;;;;;;;;;14.90;60.40;;;;;;10321898;28;93713;-51
2023/12/10 08:14:49;;;;;;;;;;;14.90;60.40;;;;;;10320842;28;94260;-51
2023/12/10 08:19:50;;;;;;;;;;;14.90;60.50;;;;;;10320558;28;93816;-46
2023/12/10 08:24:52;;;;;;;;;;;14.90;60.60;;;;;;10317706;28;93906;-48
2023/12/10 08:29:54;;;;;;;;;;;14.90;60.70;;;;;;10319325;28;93469;-47
2023/12/10 08:34:56;;;;;;;;;;;14.90;60.70;;;;;;10320344;28;93236;-46
2023/12/10 08:39:58;;;;;;;;;;;14.90;60.70;;;;;;10300337;28;95141;-46
2023/12/10 08:45:00;;;;;;;;;;;14.90;60.70;;;;;;10297648;28;96461;-51
2023/12/10 08:50:02;;;;;;;;;;;14.90;60.60;;;;;;10321245;28;94560;-46
2023/12/10 08:55:04;;;;;;;;;;;14.90;60.70;;;;;;10321881;28;94872;-47
2023/12/10 09:00:06;;;;;;;;;;;14.90;60.70;;;;;;10319320;28;93436;-46
2023/12/10 09:05:08;;;;;;;;;;;14.90;60.70;;;;;;10320045;28;94476;-48
2023/12/10 09:10:10;;;;;;;;;;;15.00;60.60;;;;;;10327005;28;94633;-46
2023/12/10 09:15:14;;;;;;;;;;;15.10;60.50;;;;;;10322626;28;94391;-47
2023/12/10 09:20:16;;;;;;;;;;;15.10;60.30;;;;;;10303072;28;93180;-55
2023/12/10 09:25:18;;;;;;;;;;;15.10;60.30;;;;;;10324960;28;94371;-51
2023/12/10 09:30:20;;;;;;;;;;;15.10;60.10;;;;;;10327416;28;93999;-49
2023/12/10 09:35:21;;;;;;;;;;;15.10;60.10;;;;;;10324924;28;95999;-49
2023/12/10 09:40:23;;;;;;;;;;;15.10;60.10;;;;;;10314813;28;93437;-48
2023/12/10 09:45:25;;;;;;;;;;;15.10;60.10;;;;;;10308491;28;93464;-47
2023/12/10 09:50:27;;;;;;;;;;;15.10;60.20;;;;;;10326033;28;93623;-46
2023/12/10 09:55:29;;;;;;;;;;;15.10;60.30;;;;;;10326334;28;94512;-46
2023/12/10 10:00:31;;;;;;;;;;;15.00;60.20;;;;;;10311667;28;95284;-46
2023/12/10 10:05:33;;;;;;;;;;;15.00;60.40;;;;;;10325067;28;94814;-47
2023/12/10 10:10:35;;;;;;;;;;;15.00;60.40;;;;;;10308552;28;93392;-51
2023/12/10 10:15:37;;;;;;;;;;;15.00;60.50;;;;;;10315045;28;94405;-46
2023/12/10 10:20:41;;;;;;;;;;;14.90;60.60;;;;;;10325076;28;93548;-49
2023/12/10 10:25:42;;;;;;;;;;;14.90;60.70;;;;;;10312621;28;95832;-50
2023/12/10 10:30:44;;;;;;;;;;;14.90;60.80;;;;;;10308271;28;94401;-47
2023/12/10 10:35:46;;;;;;;;;;;14.90;60.80;;;;;;10323652;28;94041;-54
2023/12/10 10:40:48;;;;;;;;;;;14.90;60.90;;;;;;10325065;28;94808;-47
2023/12/10 10:45:51;;;;;;;;;;;14.90;60.90;;;;;;10324338;28;94669;-49
2023/12/10 10:50:53;;;;;;;;;;;14.90;61.00;;;;;;10323515;28;93746;-47
2023/12/10 10:55:55;;;;;;;;;;;14.90;60.90;;;;;;10324936;28;94547;-50
2023/12/10 11:00:57;;;;;;;;;;;14.80;60.90;;;;;;10312690;28;93714;-49
2023/12/10 11:06:02;;;;;;;;;;;14.80;61.00;;;;;;10322736;28;94607;-47
2023/12/10 11:11:07;;;;;;;;;;;14.80;60.90;;;;;;10324041;28;94812;-48
2023/12/10 11:16:11;;;;;;;;;;;14.90;61.00;;;;;;10321055;28;116740;-48
2023/12/10 11:21:13;;;;;;;;;;;15.00;61.00;;;;;;10324632;28;93294;-57
2023/12/10 11:26:15;;;;;;;;;;;15.30;60.60;;;;;;10324623;28;94447;-50
2023/12/10 11:31:17;;;;;;;;;;;15.70;60.10;;;;;;10288684;28;93559;-49
2023/12/10 11:36:19;;;;;;;;;;;16.00;59.60;;;;;;10305596;28;94437;-51
2023/12/10 11:41:39;;;;;;;;;;;16.30;59.00;;;;;;10321661;28;93547;-46
2023/12/10 11:46:57;;;;;;;;;;;16.60;58.40;;;;;;10317455;28;92949;-49
2023/12/10 11:52:00;;;;;;;;;;;16.90;57.90;;;;;;10316833;28;92556;-48
2023/12/10 11:57:02;;;;;;;;;;;17.10;57.30;;;;;;10321863;28;93722;-48
2023/12/10 12:02:04;;;;;;;;;;;17.20;56.90;;;;;;10320229;28;94793;-47
2023/12/10 12:07:05;;;;;;;;;;;17.30;56.80;;;;;;10298205;28;95982;-49
2023/12/10 12:12:08;;;;;;;;;;;17.30;56.70;;;;;;10312054;28;94678;-46
2023/12/10 12:17:12;;;;;;;;;;;17.30;58.10;;;;;;10301983;28;93864;-49
2023/12/10 12:22:14;;;;;;;;;;;17.40;58.40;;;;;;10313165;28;93833;-49
2023/12/10 12:27:16;;;;;;;;;;;17.50;58.40;;;;;;10313496;28;96646;-51
2023/12/10 12:32:18;;;;;;;;;;;17.70;58.50;;;;;;10299905;28;94567;-48
2023/12/10 12:37:32;;;;;;;;;;;17.90;57.70;;;;;;10318486;28;93992;-53
2023/12/10 12:42:35;;;;;;;;;;;18.00;57.20;;;;;;10300890;28;93227;-46
2023/12/10 12:47:36;;;;;;;;;;;18.00;57.20;;;;;;10315145;28;93735;-51
2023/12/10 12:52:39;;;;;;;;;;;18.10;57.10;;;;;;10305323;28;94483;-52
2023/12/10 12:57:41;;;;;;;;;;;18.20;57.00;;;;;;10312640;28;95833;-49
2023/12/10 13:02:43;;;;;;;;;;;18.20;57.00;;;;;;10325502;28;94094;-52
2023/12/10 13:07:45;;;;;;;;;;;18.30;56.90;;;;;;10303617;28;94467;-49
2023/12/10 13:12:47;;;;;;;;;;;18.30;56.80;;;;;;10317932;28;94523;-51
2023/12/10 13:17:49;;;;;;;;;;;18.40;56.90;;;;;;10298806;28;93071;-49
2023/12/10 13:22:51;;;;;;;;;;;18.40;56.70;;;;;;10322398;28;93479;-50
2023/12/10 13:27:54;;;;;;;;;;;18.50;56.60;;;;;;10287326;28;93494;-50
2023/12/10 13:32:55;;;;;;;;;;;18.50;56.60;;;;;;10304140;28;92723;-51
2023/12/10 13:37:57;;;;;;;;;;;18.40;56.80;;;;;;10322339;28;93533;-49
2023/12/10 13:42:59;;;;;;;;;;;18.30;57.00;;;;;;10313391;28;93917;-50
2023/12/10 13:48:02;;;;;;;;;;;18.40;57.10;;;;;;10304399;28;95887;-47
2023/12/10 13:53:04;;;;;;;;;;;18.50;57.00;;;;;;10315394;28;93639;-48
2023/12/10 13:58:07;;;;;;;;;;;18.60;56.80;;;;;;10324165;28;94556;-48
2023/12/10 14:03:09;;;;;;;;;;;18.60;56.60;;;;;;10324777;28;94879;-48
2023/12/10 14:08:11;;;;;;;;;;;18.60;56.70;;;;;;10321261;28;94599;-50
2023/12/10 14:13:13;;;;;;;;;;;18.50;56.90;;;;;;10319490;28;93974;-49
2023/12/10 14:18:14;;;;;;;;;;;18.50;57.10;;;;;;10322322;28;93428;-50
2023/12/10 14:23:16;;;;;;;;;;;18.60;57.00;;;;;;10325067;28;94107;-48
2023/12/10 14:28:18;;;;;;;;;;;18.60;56.80;;;;;;10318141;28;94133;-47
2023/12/10 14:33:20;;;;;;;;;;;18.80;56.70;;;;;;10317743;28;94626;-51
2023/12/10 14:38:22;;;;;;;;;;;18.80;56.50;;;;;;10316889;28;95853;-50
2023/12/10 14:43:24;;;;;;;;;;;18.70;56.50;;;;;;10317895;28;94010;-47
2023/12/10 14:48:27;;;;;;;;;;;18.70;56.80;;;;;;10294871;28;93840;-47
2023/12/10 14:53:28;;;;;;;;;;;18.70;57.00;;;;;;10315570;28;93496;-55
2023/12/10 14:58:31;;;;;;;;;;;18.70;56.90;;;;;;10315663;28;93613;-50
2023/12/10 15:03:33;;;;;;;;;;;18.70;56.90;;;;;;10306304;28;93965;-47
2023/12/10 15:08:35;;;;;;;;;;;18.60;57.10;;;;;;10299502;28;94130;-47
2023/12/10 15:13:37;;;;;;;;;;;18.50;57.40;;;;;;10294199;28;92805;-47
2023/12/10 15:18:39;;;;;;;;;;;18.60;57.60;;;;;;10319583;28;94466;-50
2023/12/10 15:23:41;;;;;;;;;;;18.60;57.50;;;;;;10323486;28;93477;-51
2023/12/10 15:28:43;;;;;;;;;;;18.70;57.20;;;;;;10319198;28;95840;-48
2023/12/10 15:33:45;;;;;;;;;;;18.70;56.90;;;;;;10304785;28;93473;-50
2023/12/10 15:38:47;;;;;;;;;;;18.70;57.00;;;;;;10323026;28;95024;-50
2023/12/10 15:43:49;;;;;;;;;;;18.60;57.10;;;;;;10305116;28;94443;-51
2023/12/10 15:48:52;;;;;;;;;;;18.60;57.10;;;;;;10322846;28;94332;-47
2023/12/10 15:53:55;;;;;;;;;;;18.70;57.00;;;;;;10322540;28;93998;-50
2023/12/10 15:58:57;;;;;;;;;;;18.60;56.80;;;;;;10322780;28;94485;-49
2023/12/10 16:03:59;;;;;;;;;;;18.60;57.00;;;;;;10293225;28;92776;-49
2023/12/10 16:09:02;;;;;;;;;;;18.50;57.10;;;;;;10320776;28;93341;-48
2023/12/10 16:14:05;;;;;;;;;;;18.60;57.20;;;;;;10311999;28;94417;-50
2023/12/10 16:19:07;;;;;;;;;;;18.70;57.00;;;;;;10324944;28;96914;-49
2023/12/10 16:24:09;;;;;;;;;;;18.70;56.70;;;;;;10329763;28;94574;-53
2023/12/10 16:29:11;;;;;;;;;;;18.70;56.40;;;;;;10308802;28;93820;-46
2023/12/10 16:34:13;;;;;;;;;;;18.70;56.60;;;;;;10329922;28;93864;-49
2023/12/10 16:39:16;;;;;;;;;;;18.60;56.70;;;;;;10313542;28;94285;-51
2023/12/10 16:44:17;;;;;;;;;;;18.70;56.80;;;;;;10320687;28;93906;-49
2023/12/10 16:49:19;;;;;;;;;;;18.70;56.80;;;;;;10321080;28;93954;-49
2023/12/10 16:54:21;;;;;;;;;;;18.70;57.30;;;;;;10311832;28;92790;-49
2023/12/10 16:59:23;;;;;;;;;;;18.70;57.60;;;;;;10296722;28;93294;-50
2023/12/10 17:04:25;;;;;;;;;;;18.70;59.20;;;;;;10316635;28;94458;-49
2023/12/10 17:09:27;;;;;;;;;;;18.60;59.50;;;;;;10301934;28;95821;-49
2023/12/10 17:14:29;;;;;;;;;;;18.70;60.50;;;;;;10319767;28;94570;-50
2023/12/10 17:19:31;;;;;;;;;;;18.70;61.60;;;;;;10320839;28;94724;-50
2023/12/10 17:24:35;;;;;;;;;;;18.70;62.40;;;;;;10318256;28;94480;-50
2023/12/10 17:29:37;;;;;;;;;;;18.80;65.50;;;;;;10312161;28;96003;-49
2023/12/10 17:34:38;;;;;;;;;;;19.00;66.90;;;;;;10317071;28;93952;-51
2023/12/10 17:39:40;;;;;;;;;;;19.10;64.50;;;;;;10315014;28;94791;-48
2023/12/10 17:44:43;;;;;;;;;;;19.10;63.60;;;;;;10318089;28;92691;-51
2023/12/10 17:49:57;;;;;;;;;;;19.10;63.30;;;;;;10309478;28;94525;-47
2023/12/10 17:54:59;;;;;;;;;;;18.90;63.30;;;;;;10315594;28;93535;-50
2023/12/10 18:00:01;;;;;;;;;;;18.90;63.30;;;;;;10314711;28;96368;-47
2023/12/10 18:05:03;;;;;;;;;;;18.70;63.10;;;;;;10318125;28;94482;-52
2023/12/10 18:10:05;;;;;;;;;;;18.70;63.10;;;;;;10308312;28;93576;-51
2023/12/10 18:15:08;;;;;;;;;;;18.60;63.30;;;;;;10314319;28;93627;-47
2023/12/10 18:20:10;;;;;;;;;;;18.50;63.40;;;;;;10316370;28;94461;-50
2023/12/10 18:25:12;;;;;;;;;;;18.50;63.10;;;;;;10320069;28;94549;-48
2023/12/10 18:30:14;;;;;;;;;;;18.50;63.20;;;;;;10292449;28;94441;-48
2023/12/10 18:35:21;;;;;;;;;;;18.50;63.40;;;;;;10319641;28;94250;-51
2023/12/10 18:40:27;;;;;;;;;;;18.40;63.60;;;;;;10295166;28;94557;-46
2023/12/10 18:45:30;;;;;;;;;;;18.40;64.80;;;;;;10293599;28;93358;-49
2023/12/10 18:50:32;;;;;;;;;;;18.40;65.20;;;;;;10310932;28;97440;-48
2023/12/10 18:55:34;;;;;;;;;;;18.50;64.60;;;;;;10309221;28;95211;-47
2023/12/10 19:00:35;;;;;;;;;;;18.50;63.80;;;;;;10293474;28;93549;-48
2023/12/10 19:05:40;;;;;;;;;;;18.40;63.30;;;;;;10321220;28;93599;-47
2023/12/10 19:10:41;;;;;;;;;;;18.40;63.20;;;;;;10295129;28;93244;-47
2023/12/10 19:15:43;;;;;;;;;;;18.30;63.10;;;;;;10313561;28;93509;-43
2023/12/10 19:20:51;;;;;;;;;;;18.20;63.10;;;;;;10324163;28;93958;-46
2023/12/10 19:25:52;;;;;;;;;;;18.00;63.10;;;;;;10322857;28;91846;-43
2023/12/10 19:30:55;;;;;;;;;;;18.00;63.30;;;;;;10303907;28;95095;-48
2023/12/10 19:35:57;;;;;;;;;;;17.90;63.30;;;;;;10322127;28;93223;-52
2023/12/10 19:40:59;;;;;;;;;;;17.80;63.50;;;;;;10317022;28;96824;-47
2023/12/10 19:46:00;;;;;;;;;;;17.70;63.70;;;;;;10311930;28;94174;-45
2023/12/10 19:51:03;;;;;;;;;;;17.60;64.70;;;;;;10321027;28;94636;-49
2023/12/10 19:56:05;;;;;;;;;;;17.60;63.80;;;;;;10319616;28;93219;-47
2023/12/10 20:01:07;;;;;;;;;;;17.50;63.80;;;;;;10321042;28;93456;-48
2023/12/10 20:06:09;;;;;;;;;;;17.40;63.80;;;;;;10304303;28;93504;-44
2023/12/10 20:11:11;;;;;;;;;;;17.40;63.80;;;;;;10319966;28;94954;-46
2023/12/10 20:16:13;;;;;;;;;;;17.40;63.80;;;;;;10294199;28;94009;-43
2023/12/10 20:21:14;;;;;;;;;;;17.30;64.80;;;;;;10294842;28;92957;-43
2023/12/10 20:26:16;;;;;;;;;;;17.30;63.90;;;;;;10295014;28;93335;-50
2023/12/10 20:31:29;;;;;;;;;;;17.20;63.80;;;;;;10307759;28;95465;-43
2023/12/10 20:36:31;;;;;;;;;;;17.20;63.80;;;;;;10321689;28;93599;-44
2023/12/10 20:41:33;;;;;;;;;;;17.20;63.90;;;;;;10320779;28;94919;-46
2023/12/10 20:46:35;;;;;;;;;;;17.10;63.90;;;;;;10292510;28;94500;-46
2023/12/10 20:51:36;;;;;;;;;;;17.10;63.90;;;;;;10321410;28;94489;-45
2023/12/10 20:56:38;;;;;;;;;;;17.00;63.90;;;;;;10293721;28;94991;-43
2023/12/10 21:01:40;;;;;;;;;;;17.00;63.90;;;;;;10310894;28;93959;-48
2023/12/10 21:06:42;;;;;;;;;;;17.00;64.00;;;;;;10328627;28;93756;-43
2023/12/10 21:11:44;;;;;;;;;;;16.90;64.00;;;;;;10323641;28;94619;-48
2023/12/10 21:16:46;;;;;;;;;;;16.90;64.00;;;;;;10319596;28;94398;-46
2023/12/10 21:21:48;;;;;;;;;;;16.90;64.00;;;;;;10325195;28;96840;-44
2023/12/10 21:26:49;;;;;;;;;;;16.80;64.00;;;;;;10298500;28;94443;-48
2023/12/10 21:31:51;;;;;;;;;;;16.80;64.00;;;;;;10308458;28;93721;-44
2023/12/10 21:36:53;;;;;;;;;;;16.80;64.00;;;;;;10324970;28;93337;-43
2023/12/10 21:41:55;;;;;;;;;;;16.80;64.20;;;;;;10311618;28;93452;-46
2023/12/10 21:46:57;;;;;;;;;;;16.80;64.90;;;;;;10322266;28;94040;-43
2023/12/10 21:51:58;;;;;;;;;;;16.70;63.60;;;;;;10316154;28;93863;-48
2023/12/10 21:57:00;;;;;;;;;;;16.70;63.40;;;;;;10294579;28;93084;-47
2023/12/10 22:02:02;;;;;;;;;;;16.80;63.30;;;;;;10320003;28;94158;-44
2023/12/10 22:07:04;;;;;;;;;;;16.80;62.80;;;;;;10292474;28;93248;-43
2023/12/10 22:12:07;;;;;;;;;;;16.80;62.40;;;;;;10312870;28;97481;-46
2023/12/10 22:17:09;;;;;;;;;;;16.80;62.00;;;;;;10324689;28;94626;-44
2023/12/10 22:22:10;;;;;;;;;;;16.70;61.60;;;;;;10302819;28;93518;-46
2023/12/10 22:27:12;;;;;;;;;;;16.70;61.50;;;;;;10317732;28;93524;-45
2023/12/10 22:32:14;;;;;;;;;;;16.70;61.90;;;;;;10303787;28;94424;-43
2023/12/10 22:37:16;;;;;;;;;;;16.60;62.10;;;;;;10321599;28;93127;-43
2023/12/10 22:42:18;;;;;;;;;;;16.60;61.80;;;;;;10319377;28;94471;-42
2023/12/10 22:47:20;;;;;;;;;;;16.60;61.40;;;;;;10315686;28;92708;-43
2023/12/10 22:52:22;;;;;;;;;;;16.60;61.10;;;;;;10311369;28;93824;-43
2023/12/10 22:57:24;;;;;;;;;;;16.60;60.80;;;;;;10292823;28;93068;-44
2023/12/10 23:02:25;;;;;;;;;;;16.60;61.50;;;;;;10319690;28;96849;-44
2023/12/10 23:07:27;;;;;;;;;;;16.60;60.20;;;;;;10318044;28;94487;-47
2023/12/10 23:12:29;;;;;;;;;;;16.60;60.00;;;;;;10290557;28;94489;-45
2023/12/10 23:17:31;;;;;;;;;;;16.50;59.80;;;;;;10310575;28;94084;-43
2023/12/10 23:22:34;;;;;;;;;;;16.50;59.80;;;;;;10322056;28;93410;-43
2023/12/10 23:27:36;;;;;;;;;;;16.50;60.40;;;;;;10310869;28;94613;-46
2023/12/10 23:32:38;;;;;;;;;;;16.50;60.40;;;;;;10299495;28;93562;-44
2023/12/10 23:37:40;;;;;;;;;;;16.40;60.30;;;;;;10322665;28;93781;-44
2023/12/10 23:42:41;;;;;;;;;;;16.50;60.00;;;;;;10314318;28;93351;-44
2023/12/10 23:47:43;;;;;;;;;;;16.50;59.80;;;;;;10317498;28;94443;-55
2023/12/10 23:52:46;;;;;;;;;;;16.50;59.50;;;;;;10316444;28;97702;-48
2023/12/10 23:57:48;;;;;;;;;;;16.50;59.30;;;;;;10300745;28;94013;-46
